createdAt,value
2022-12-25T00:01:45.583Z,100362.80
2022-12-25T00:04:18.962Z,100365.80
2022-12-25T00:06:52.053Z,100362.40
2022-12-25T00:09:26.658Z,100366.60
2022-12-25T00:11:59.754Z,100368.00
2022-12-25T00:14:32.838Z,100370.20
2022-12-25T00:17:05.983Z,100372.20
2022-12-25T00:19:39.170Z,100377.40
2022-12-25T00:22:12.374Z,100380.20
2022-12-25T00:24:45.856Z,100376.80
2022-12-25T00:27:19.305Z,100379.80
2022-12-25T00:29:53.146Z,100384.00
2022-12-25T00:32:26.415Z,100391.40
2022-12-25T00:34:59.416Z,100386.00
2022-12-25T00:37:32.432Z,100389.80
2022-12-25T00:40:05.883Z,100388.80
2022-12-25T00:42:39.145Z,100393.20
2022-12-25T00:45:15.797Z,100398.20
2022-12-25T00:47:49.060Z,100403.60
2022-12-25T00:50:22.574Z,100399.20
2022-12-25T00:52:55.596Z,100397.20
2022-12-25T00:55:29.562Z,100397.80
2022-12-25T00:58:03.300Z,100397.80
2022-12-25T01:00:36.432Z,100405.40
2022-12-25T01:03:11.041Z,100403.00
2022-12-25T01:05:44.184Z,100404.20
2022-12-25T01:08:17.256Z,100405.60
2022-12-25T01:10:56.600Z,100416.20
2022-12-25T01:13:30.013Z,100416.00
2022-12-25T01:16:08.691Z,100430.40
2022-12-25T01:18:43.487Z,100424.60
2022-12-25T01:21:20.277Z,100424.80
2022-12-25T01:23:54.979Z,100428.40
2022-12-25T01:26:30.147Z,100436.60
2022-12-25T01:29:03.879Z,100431.40
2022-12-25T01:31:36.981Z,100441.20
2022-12-25T01:34:10.080Z,100449.60
2022-12-25T01:36:43.303Z,100448.20
2022-12-25T01:39:16.279Z,100454.60
2022-12-25T01:41:50.383Z,100452.80
2022-12-25T01:45:24.329Z,100451.40
2022-12-25T01:47:57.617Z,100462.20
2022-12-25T01:50:30.876Z,100457.20
2022-12-25T01:53:04.131Z,100452.20
2022-12-25T01:55:37.754Z,100453.20
2022-12-25T01:58:10.843Z,100449.60
2022-12-25T02:00:44.051Z,100445.00
2022-12-25T02:03:18.456Z,100445.20
2022-12-25T02:05:52.848Z,100455.60
2022-12-25T02:08:26.436Z,100458.00
2022-12-25T02:10:59.980Z,100461.60
2022-12-25T02:13:36.708Z,100457.20
2022-12-25T02:16:16.849Z,100452.80
2022-12-25T02:18:58.097Z,100456.00
2022-12-25T02:21:52.864Z,100454.40
2022-12-25T02:24:54.467Z,100466.00
2022-12-25T02:27:49.237Z,100469.00
2022-12-25T02:30:22.545Z,100461.20
2022-12-25T02:33:15.421Z,100460.20
2022-12-25T02:35:51.765Z,100460.80
2022-12-25T02:38:32.545Z,100467.60
2022-12-25T02:41:12.802Z,100472.80
2022-12-25T02:44:04.973Z,100476.40
2022-12-25T02:46:55.499Z,100476.60
2022-12-25T02:49:45.511Z,100473.40
2022-12-25T02:52:40.376Z,100477.40
2022-12-25T02:55:34.187Z,100487.20
2022-12-25T02:58:28.601Z,100488.00
2022-12-25T03:01:22.759Z,100487.20
2022-12-25T03:04:16.344Z,100487.80
2022-12-25T03:07:09.392Z,100493.20
2022-12-25T03:10:04.357Z,100486.80
2022-12-25T03:12:47.718Z,100485.80
2022-12-25T03:15:40.042Z,100484.00
2022-12-25T03:18:19.174Z,100493.80
2022-12-25T03:21:09.405Z,100493.80
2022-12-25T03:24:03.650Z,100501.60
2022-12-25T03:26:56.503Z,100508.60
2022-12-25T03:29:50.678Z,100509.80
2022-12-25T03:32:41.115Z,100513.80
2022-12-25T03:35:24.122Z,100512.80
2022-12-25T03:38:38.477Z,100515.20
2022-12-25T03:41:36.063Z,100521.40
2022-12-25T03:44:40.409Z,100526.60
2022-12-25T03:47:52.876Z,100531.00
2022-12-25T03:50:48.444Z,100528.20
2022-12-25T03:53:44.848Z,100529.00
2022-12-25T03:56:51.863Z,100536.40
2022-12-25T03:59:43.427Z,100532.60
2022-12-25T04:02:34.238Z,100532.80
2022-12-25T04:05:26.122Z,100539.40
2022-12-25T04:08:16.667Z,100542.00
2022-12-25T04:11:05.194Z,100541.40
2022-12-25T04:13:57.884Z,100534.00
2022-12-25T04:16:48.175Z,100533.00
2022-12-25T04:19:38.652Z,100526.60
2022-12-25T04:22:27.592Z,100520.00
2022-12-25T04:25:17.916Z,100523.20
2022-12-25T04:28:08.420Z,100524.20
2022-12-25T04:31:00.555Z,100529.60
2022-12-25T04:33:51.238Z,100528.60
2022-12-25T04:36:22.961Z,100533.40
2022-12-25T04:38:55.989Z,100528.40
2022-12-25T04:41:28.981Z,100525.40
2022-12-25T04:44:01.962Z,100529.60
2022-12-25T04:46:35.033Z,100526.40
2022-12-25T04:49:08.099Z,100528.00
2022-12-25T04:51:41.423Z,100534.20
2022-12-25T04:54:14.374Z,100538.60
2022-12-25T04:56:47.304Z,100544.40
2022-12-25T04:59:20.275Z,100547.20
2022-12-25T05:01:53.410Z,100548.80
2022-12-25T05:04:26.410Z,100553.60
2022-12-25T05:06:59.347Z,100548.00
2022-12-25T05:09:32.599Z,100542.60
2022-12-25T05:12:05.986Z,100547.40
2022-12-25T05:14:40.126Z,100555.80
2022-12-25T05:17:13.179Z,100561.00
2022-12-25T05:19:46.222Z,100559.00
2022-12-25T05:22:19.177Z,100559.00
2022-12-25T05:24:52.205Z,100564.20
2022-12-25T05:27:25.267Z,100568.40
2022-12-25T05:29:58.235Z,100576.80
2022-12-25T05:32:31.268Z,100579.00
2022-12-25T05:35:04.329Z,100575.60
2022-12-25T05:37:37.511Z,100577.40
2022-12-25T05:40:13.759Z,100575.80
2022-12-25T05:42:46.849Z,100579.00
2022-12-25T05:45:20.016Z,100582.80
2022-12-25T05:47:53.624Z,100586.40
2022-12-25T05:50:26.658Z,100587.20
2022-12-25T05:53:12.454Z,100586.60
2022-12-25T05:55:46.895Z,100587.40
2022-12-25T05:58:19.841Z,100592.80
2022-12-25T06:00:52.884Z,100592.40
2022-12-25T06:03:26.248Z,100591.60
2022-12-25T06:05:59.301Z,100599.40
2022-12-25T06:08:32.270Z,100600.20
2022-12-25T06:11:08.341Z,100606.80
2022-12-25T06:13:41.454Z,100609.40
2022-12-25T06:16:15.407Z,100609.00
2022-12-25T06:18:53.369Z,100615.60
2022-12-25T06:21:26.424Z,100623.40
2022-12-25T06:24:00.793Z,100636.20
2022-12-25T06:26:33.987Z,100636.80
2022-12-25T06:29:07.367Z,100634.00
2022-12-25T06:31:40.426Z,100642.40
2022-12-25T06:34:16.549Z,100642.00
2022-12-25T06:36:49.675Z,100647.40
2022-12-25T06:39:22.934Z,100653.80
2022-12-25T06:41:55.956Z,100655.60
2022-12-25T06:44:29.216Z,100656.80
2022-12-25T06:47:02.171Z,100661.00
2022-12-25T06:49:35.190Z,100662.60
2022-12-25T06:52:08.347Z,100664.40
2022-12-25T06:54:41.324Z,100668.00
2022-12-25T06:57:14.358Z,100669.60
2022-12-25T06:59:52.949Z,100663.40
2022-12-25T07:02:26.485Z,100662.00
2022-12-25T07:05:00.126Z,100658.60
2022-12-25T07:07:33.140Z,100655.80
2022-12-25T07:10:07.186Z,100658.40
2022-12-25T07:12:40.257Z,100659.20
2022-12-25T07:15:14.606Z,100656.00
2022-12-25T07:17:47.532Z,100660.40
2022-12-25T07:20:20.803Z,100666.20
2022-12-25T07:22:53.814Z,100673.80
2022-12-25T07:25:28.789Z,100666.40
2022-12-25T07:28:05.251Z,100673.20
2022-12-25T07:30:39.063Z,100667.20
2022-12-25T07:33:12.100Z,100676.60
2022-12-25T07:35:45.365Z,100677.20
2022-12-25T07:38:18.340Z,100675.60
2022-12-25T07:40:51.370Z,100684.60
2022-12-25T07:43:24.669Z,100679.60
2022-12-25T07:46:01.906Z,100683.60
2022-12-25T07:48:35.033Z,100685.00
2022-12-25T07:51:12.143Z,100680.00
2022-12-25T07:53:45.769Z,100673.40
2022-12-25T07:56:21.039Z,100673.60
2022-12-25T07:58:54.231Z,100673.40
2022-12-25T08:01:29.929Z,100680.40
2022-12-25T08:04:04.970Z,100684.80
2022-12-25T08:06:39.089Z,100689.40
2022-12-25T08:09:14.098Z,100682.20
2022-12-25T08:11:51.081Z,100681.20
2022-12-25T08:14:24.120Z,100682.00
2022-12-25T08:16:57.233Z,100683.40
2022-12-25T08:19:30.413Z,100685.20
2022-12-25T08:22:03.515Z,100682.80
2022-12-25T08:24:36.254Z,100680.80
2022-12-25T08:27:09.283Z,100672.00
2022-12-25T08:29:44.658Z,100674.40
2022-12-25T08:32:17.798Z,100682.20
2022-12-25T08:34:50.806Z,100684.60
2022-12-25T08:37:23.894Z,100682.80
2022-12-25T08:39:56.865Z,100690.60
2022-12-25T08:42:30.176Z,100691.00
2022-12-25T08:45:04.828Z,100695.60
2022-12-25T08:47:37.813Z,100702.00
2022-12-25T08:50:12.620Z,100703.00
2022-12-25T08:52:45.698Z,100702.40
2022-12-25T08:55:18.914Z,100705.00
2022-12-25T08:57:53.506Z,100702.80
2022-12-25T09:00:26.770Z,100699.60
2022-12-25T09:02:59.901Z,100704.20
2022-12-25T09:05:35.741Z,100711.80
2022-12-25T09:08:09.669Z,100709.80
2022-12-25T09:10:42.745Z,100708.00
2022-12-25T09:13:16.448Z,100703.00
2022-12-25T09:15:49.865Z,100704.00
2022-12-25T09:18:22.944Z,100702.60
2022-12-25T09:21:04.647Z,100701.80
2022-12-25T09:23:39.644Z,100707.20
2022-12-25T09:26:16.716Z,100701.60
2022-12-25T09:28:52.302Z,100706.60
2022-12-25T09:31:26.404Z,100701.20
2022-12-25T09:34:00.958Z,100699.60
2022-12-25T09:36:34.039Z,100700.40
2022-12-25T09:39:07.069Z,100705.80
2022-12-25T09:41:50.333Z,100700.40
2022-12-25T09:44:27.264Z,100687.00
2022-12-25T09:47:04.130Z,100694.20
2022-12-25T09:49:45.968Z,100701.60
2022-12-25T09:52:22.229Z,100702.40
2022-12-25T09:55:05.719Z,100697.00
2022-12-25T09:57:38.713Z,100701.40
2022-12-25T10:00:19.716Z,100701.00
2022-12-25T10:03:37.395Z,100700.80
2022-12-25T10:06:20.631Z,100698.00
2022-12-25T10:09:22.068Z,100689.60
2022-12-25T10:12:16.780Z,100680.20
2022-12-25T10:15:04.979Z,100680.00
2022-12-25T10:17:51.434Z,100681.40
2022-12-25T10:20:40.312Z,100681.60
2022-12-25T10:23:20.462Z,100681.20
2022-12-25T10:25:55.284Z,100682.00
2022-12-25T10:28:36.239Z,100682.80
2022-12-25T10:31:22.353Z,100681.60
2022-12-25T10:33:56.828Z,100687.20
2022-12-25T10:36:31.932Z,100685.80
2022-12-25T10:39:05.168Z,100674.80
2022-12-25T10:42:04.365Z,100682.20
2022-12-25T10:44:37.804Z,100680.60
2022-12-25T10:47:11.390Z,100683.20
2022-12-25T10:49:44.440Z,100680.00
2022-12-25T10:52:27.072Z,100674.40
2022-12-25T10:55:00.624Z,100672.00
2022-12-25T10:57:33.699Z,100671.80
2022-12-25T11:00:23.639Z,100670.40
2022-12-25T11:02:57.090Z,100670.00
2022-12-25T11:05:33.252Z,100676.20
2022-12-25T11:08:19.497Z,100676.60
2022-12-25T11:10:58.950Z,100669.20
2022-12-25T11:13:34.505Z,100661.20
2022-12-25T11:16:12.014Z,100655.20
2022-12-25T11:18:54.386Z,100643.00
2022-12-25T11:21:34.592Z,100643.40
2022-12-25T11:24:20.112Z,100637.40
2022-12-25T11:26:55.500Z,100634.60
2022-12-25T11:29:38.845Z,100628.20
2022-12-25T11:32:22.147Z,100632.40
2022-12-25T11:34:56.655Z,100631.80
2022-12-25T11:37:35.396Z,100635.60
2022-12-25T11:40:16.016Z,100646.00
2022-12-25T11:42:54.531Z,100637.20
2022-12-25T11:45:33.553Z,100632.20
2022-12-25T11:48:12.989Z,100631.60
2022-12-25T11:50:49.697Z,100637.40
2022-12-25T11:53:30.207Z,100627.40
2022-12-25T11:56:03.355Z,100622.00
2022-12-25T11:58:41.077Z,100621.20
2022-12-25T12:01:30.791Z,100622.20
2022-12-25T12:04:08.467Z,100625.40
2022-12-25T12:06:52.462Z,100636.60
2022-12-25T12:09:40.282Z,100631.60
2022-12-25T12:12:18.723Z,100627.80
2022-12-25T12:14:59.762Z,100626.20
2022-12-25T12:17:33.365Z,100619.40
2022-12-25T12:20:33.690Z,100623.20
2022-12-25T12:23:14.932Z,100619.60
2022-12-25T12:25:50.132Z,100614.00
2022-12-25T12:28:29.468Z,100606.20
2022-12-25T12:31:07.061Z,100614.80
2022-12-25T12:33:45.247Z,100613.00
2022-12-25T12:36:29.268Z,100605.40
2022-12-25T12:39:08.601Z,100598.80
2022-12-25T12:41:50.886Z,100597.20
2022-12-25T12:44:28.041Z,100586.60
2022-12-25T12:47:01.365Z,100591.20
2022-12-25T12:49:34.981Z,100597.20
2022-12-25T12:52:32.525Z,100601.40
2022-12-25T12:55:08.567Z,100609.20
2022-12-25T12:57:42.992Z,100610.80
2022-12-25T13:00:22.679Z,100617.80
2022-12-25T13:03:24.433Z,100607.40
2022-12-25T13:06:03.737Z,100601.80
2022-12-25T13:08:57.251Z,100606.40
2022-12-25T13:11:33.221Z,100598.60
2022-12-25T13:14:06.851Z,100592.80
2022-12-25T13:16:43.750Z,100581.20
2022-12-25T13:19:22.020Z,100588.00
2022-12-25T13:22:00.541Z,100587.60
2022-12-25T13:24:36.129Z,100589.60
2022-12-25T13:27:27.107Z,100593.60
2022-12-25T13:30:00.927Z,100591.00
2022-12-25T13:32:36.690Z,100589.20
2022-12-25T13:35:15.397Z,100586.60
2022-12-25T13:37:48.846Z,100582.20
2022-12-25T13:40:29.341Z,100588.20
2022-12-25T13:43:02.723Z,100587.00
2022-12-25T13:45:36.554Z,100584.00
2022-12-25T13:48:20.312Z,100578.00
2022-12-25T13:51:03.215Z,100564.80
2022-12-25T13:53:36.179Z,100547.80
2022-12-25T13:56:13.875Z,100553.00
2022-12-25T13:58:49.619Z,100555.00
2022-12-25T14:01:23.105Z,100538.80
2022-12-25T14:03:57.072Z,100539.00
2022-12-25T14:06:33.217Z,100533.20
2022-12-25T14:09:07.235Z,100542.40
2022-12-25T14:11:41.986Z,100560.00
2022-12-25T14:14:23.044Z,100570.80
2022-12-25T14:17:00.615Z,100568.60
2022-12-25T14:19:35.927Z,100564.80
2022-12-25T14:22:17.599Z,100563.60
2022-12-25T14:24:50.937Z,100559.40
2022-12-25T14:27:27.706Z,100567.20
2022-12-25T14:30:02.401Z,100564.60
2022-12-25T14:32:48.145Z,100565.00
2022-12-25T14:35:23.703Z,100568.20
2022-12-25T14:38:03.256Z,100569.60
2022-12-25T14:40:37.305Z,100569.40
2022-12-25T14:43:27.330Z,100567.00
2022-12-25T14:46:02.923Z,100564.40
2022-12-25T14:48:36.764Z,100568.40
2022-12-25T14:51:17.496Z,100565.40
2022-12-25T14:53:55.104Z,100563.00
2022-12-25T14:56:33.328Z,100558.80
2022-12-25T14:59:07.883Z,100565.80
2022-12-25T15:01:43.078Z,100565.20
2022-12-25T15:04:22.492Z,100551.00
2022-12-25T15:07:00.941Z,100541.40
2022-12-25T15:09:36.226Z,100534.40
2022-12-25T15:12:09.986Z,100545.20
2022-12-25T15:14:43.004Z,100556.00
2022-12-25T15:17:26.560Z,100564.20
2022-12-25T15:20:02.403Z,100563.00
2022-12-25T15:23:02.408Z,100547.00
2022-12-25T15:25:30.319Z,100516.20
2022-12-25T15:28:06.694Z,100518.60
2022-12-25T15:30:44.376Z,100542.80
2022-12-25T15:33:20.516Z,100549.40
2022-12-25T15:35:53.661Z,100547.80
2022-12-25T15:38:26.770Z,100542.00
2022-12-25T15:40:59.868Z,100537.60
2022-12-25T15:43:41.196Z,100530.80
2022-12-25T15:46:15.335Z,100522.00
2022-12-25T15:48:48.565Z,100513.00
2022-12-25T15:51:21.672Z,100520.80
2022-12-25T15:53:54.828Z,100524.60
2022-12-25T15:56:28.533Z,100525.20
2022-12-25T15:59:01.503Z,100523.00
2022-12-25T16:01:34.861Z,100537.80
2022-12-25T16:04:07.965Z,100539.20
2022-12-25T16:06:41.389Z,100537.00
2022-12-25T16:09:16.622Z,100531.20
2022-12-25T16:11:50.205Z,100513.00
2022-12-25T16:14:23.294Z,100504.40
2022-12-25T16:16:56.409Z,100493.60
2022-12-25T16:19:29.537Z,100490.60
2022-12-25T16:22:03.272Z,100495.20
2022-12-25T16:24:36.581Z,100487.00
2022-12-25T16:27:10.583Z,100482.20
2022-12-25T16:29:43.773Z,100472.40
2022-12-25T16:32:17.627Z,100472.40
2022-12-25T16:34:53.137Z,100472.60
2022-12-25T16:37:27.411Z,100467.00
2022-12-25T16:40:00.655Z,100464.00
2022-12-25T16:42:33.862Z,100463.80
2022-12-25T16:45:08.107Z,100471.00
2022-12-25T16:47:41.440Z,100473.40
2022-12-25T16:50:16.543Z,100470.40
2022-12-25T16:52:49.627Z,100462.80
2022-12-25T16:55:29.344Z,100452.00
2022-12-25T16:58:03.535Z,100455.80
2022-12-25T17:00:36.770Z,100459.80
2022-12-25T17:03:09.896Z,100456.80
2022-12-25T17:05:43.251Z,100460.40
2022-12-25T17:08:16.303Z,100466.00
2022-12-25T17:10:49.363Z,100471.80
2022-12-25T17:13:22.437Z,100469.20
2022-12-25T17:15:55.499Z,100475.20
2022-12-25T17:18:28.606Z,100463.20
2022-12-25T17:21:01.787Z,100452.40
2022-12-25T17:23:34.806Z,100434.40
2022-12-25T17:26:08.753Z,100431.40
2022-12-25T17:28:41.996Z,100430.60
2022-12-25T17:31:16.171Z,100420.00
2022-12-25T17:33:49.213Z,100415.60
2022-12-25T17:36:24.190Z,100426.20
2022-12-25T17:38:57.241Z,100436.00
2022-12-25T17:41:30.546Z,100439.60
2022-12-25T17:44:03.887Z,100442.80
2022-12-25T17:46:36.935Z,100443.60
2022-12-25T17:49:11.498Z,100435.60
2022-12-25T17:51:44.765Z,100430.00
2022-12-25T17:54:18.184Z,100432.40
2022-12-25T17:56:51.201Z,100440.40
2022-12-25T17:59:28.650Z,100429.20
2022-12-25T18:02:01.835Z,100421.00
2022-12-25T18:04:35.110Z,100412.20
2022-12-25T18:07:08.132Z,100414.80
2022-12-25T18:09:41.395Z,100408.40
2022-12-25T18:12:14.527Z,100406.20
2022-12-25T18:14:47.968Z,100405.60
2022-12-25T18:17:20.974Z,100404.80
2022-12-25T18:19:56.018Z,100394.80
2022-12-25T18:22:29.036Z,100377.80
2022-12-25T18:25:02.107Z,100373.40
2022-12-25T18:27:35.242Z,100372.80
2022-12-25T18:30:10.823Z,100373.20
2022-12-25T18:32:44.017Z,100369.40
2022-12-25T18:35:17.165Z,100364.60
2022-12-25T18:37:50.330Z,100359.40
2022-12-25T18:40:23.517Z,100354.00
2022-12-25T18:43:02.918Z,100350.20
2022-12-25T18:45:37.099Z,100349.80
2022-12-25T18:48:11.658Z,100361.00
2022-12-25T18:50:49.988Z,100362.40
2022-12-25T18:53:24.041Z,100348.40
2022-12-25T18:55:58.373Z,100338.20
2022-12-25T18:58:31.492Z,100340.60
2022-12-25T19:01:10.783Z,100341.60
2022-12-25T19:03:44.290Z,100347.80
2022-12-25T19:06:23.796Z,100337.40
2022-12-25T19:08:57.997Z,100329.60
2022-12-25T19:11:31.129Z,100321.60
2022-12-25T19:14:04.260Z,100319.60
2022-12-25T19:16:39.498Z,100316.20
2022-12-25T19:19:13.280Z,100323.20
2022-12-25T19:21:47.719Z,100302.40
2022-12-25T19:24:20.909Z,100309.60
2022-12-25T19:26:54.421Z,100310.60
2022-12-25T19:29:27.931Z,100307.40
2022-12-25T19:32:01.497Z,100302.40
2022-12-25T19:34:34.715Z,100294.80
2022-12-25T19:37:08.047Z,100292.20
2022-12-25T19:39:46.248Z,100283.00
2022-12-25T19:42:22.217Z,100280.40
2022-12-25T19:44:56.075Z,100285.60
2022-12-25T19:47:29.251Z,100287.40
2022-12-25T19:50:03.584Z,100282.80
2022-12-25T19:52:37.042Z,100275.20
2022-12-25T19:55:11.765Z,100274.40
2022-12-25T19:57:44.923Z,100266.60
2022-12-25T20:00:19.552Z,100260.80
2022-12-25T20:02:54.179Z,100257.40
2022-12-25T20:05:29.160Z,100258.20
2022-12-25T20:08:02.661Z,100256.80
2022-12-25T20:10:35.786Z,100248.00
2022-12-25T20:13:10.371Z,100249.00
2022-12-25T20:15:43.883Z,100235.00
2022-12-25T20:18:18.095Z,100224.20
2022-12-25T20:20:51.291Z,100223.60
2022-12-25T20:23:24.459Z,100218.40
2022-12-25T20:26:01.109Z,100217.60
2022-12-25T20:28:36.380Z,100222.80
2022-12-25T20:31:20.795Z,100222.80
2022-12-25T20:33:53.915Z,100224.20
2022-12-25T20:36:32.627Z,100232.00
2022-12-25T20:39:06.468Z,100235.40
2022-12-25T20:41:40.994Z,100233.20
2022-12-25T20:44:16.752Z,100223.00
2022-12-25T20:46:49.805Z,100206.40
2022-12-25T20:49:22.778Z,100210.80
2022-12-25T20:52:01.345Z,100207.40
2022-12-25T20:54:38.328Z,100200.20
2022-12-25T20:57:11.535Z,100188.20
2022-12-25T20:59:45.973Z,100183.60
2022-12-25T21:02:34.709Z,100184.60
2022-12-25T21:05:12.652Z,100200.80
2022-12-25T21:07:45.722Z,100201.20
2022-12-25T21:10:18.840Z,100197.80
2022-12-25T21:12:52.040Z,100194.60
2022-12-25T21:15:25.346Z,100179.00
2022-12-25T21:17:58.402Z,100176.80
2022-12-25T21:20:31.432Z,100175.20
2022-12-25T21:23:04.425Z,100167.40
2022-12-25T21:25:37.422Z,100160.00
2022-12-25T21:28:10.826Z,100151.40
2022-12-25T21:30:43.891Z,100145.00
2022-12-25T21:33:35.439Z,100138.80
2022-12-25T21:36:13.894Z,100134.00
2022-12-25T21:38:47.142Z,100131.80
2022-12-25T21:41:20.136Z,100132.00
2022-12-25T21:43:53.300Z,100135.40
2022-12-25T21:46:27.433Z,100139.60
2022-12-25T21:49:01.085Z,100135.60
2022-12-25T21:51:53.455Z,100135.80
2022-12-25T21:54:26.866Z,100140.60
2022-12-25T21:56:59.858Z,100146.20
2022-12-25T21:59:32.950Z,100158.00
2022-12-25T22:02:11.699Z,100160.80
2022-12-25T22:04:45.309Z,100171.00
2022-12-25T22:07:18.872Z,100166.60
2022-12-25T22:09:53.593Z,100170.40
2022-12-25T22:12:44.116Z,100164.00
2022-12-25T22:15:15.641Z,100153.20
2022-12-25T22:18:06.184Z,100155.20
2022-12-25T22:20:42.413Z,100145.40
2022-12-25T22:23:16.453Z,100144.40
2022-12-25T22:25:49.436Z,100139.60
2022-12-25T22:28:22.614Z,100131.80
2022-12-25T22:30:55.858Z,100136.80
2022-12-25T22:33:28.874Z,100143.40
2022-12-25T22:36:08.828Z,100135.20
2022-12-25T22:38:44.473Z,100136.20
2022-12-25T22:41:17.602Z,100121.80
2022-12-25T22:44:16.480Z,100112.40
2022-12-25T22:46:43.964Z,100109.60
2022-12-25T22:49:17.278Z,100110.80
2022-12-25T22:51:52.424Z,100098.60
2022-12-25T22:54:26.749Z,100084.20
2022-12-25T22:57:00.778Z,100088.20
2022-12-25T22:59:34.300Z,100084.60
2022-12-25T23:02:07.850Z,100074.20
2022-12-25T23:04:41.298Z,100069.80
2022-12-25T23:07:15.866Z,100060.20
2022-12-25T23:09:49.231Z,100051.60
2022-12-25T23:12:42.092Z,100064.80
2022-12-25T23:15:15.548Z,100059.60
2022-12-25T23:18:06.022Z,100062.80
2022-12-25T23:20:57.701Z,100066.80
2022-12-25T23:23:48.203Z,100084.60
2022-12-25T23:26:20.262Z,100079.80
2022-12-25T23:29:10.474Z,100082.80
2022-12-25T23:31:53.756Z,100084.00
2022-12-25T23:34:27.369Z,100071.00
2022-12-25T23:37:00.608Z,100061.20
2022-12-25T23:39:33.921Z,100065.80
2022-12-25T23:42:07.407Z,100056.20
2022-12-25T23:44:40.392Z,100050.00
2022-12-25T23:47:13.425Z,100059.60
2022-12-25T23:49:46.476Z,100059.80
2022-12-25T23:52:19.502Z,100070.80
2022-12-25T23:54:53.087Z,100076.60
2022-12-25T23:57:26.121Z,100070.20
